sensor_id;sensor_type;location;lat;lon;timestamp;pressure;altitude;pressure_sealevel;temperature;humidity
64189;BME280;50493;50.970;10.082;2023-03-23T00:01:10;98353.63;;;12.95;46.07
64189;BME280;50493;50.970;10.082;2023-03-23T00:03:38;98361.97;;;13.04;45.96
64189;BME280;50493;50.970;10.082;2023-03-23T00:06:04;98344.06;;;13.12;45.19
64189;BME280;50493;50.970;10.082;2023-03-23T00:08:30;98356.16;;;12.97;51.58
64189;BME280;50493;50.970;10.082;2023-03-23T00:10:55;98349.19;;;12.96;46.94
64189;BME280;50493;50.970;10.082;2023-03-23T00:13:27;98342.59;;;13.06;47.47
64189;BME280;50493;50.970;10.082;2023-03-23T00:15:53;98336.84;;;12.79;52.23
64189;BME280;50493;50.970;10.082;2023-03-23T00:18:20;98338.88;;;12.55;47.54
64189;BME280;50493;50.970;10.082;2023-03-23T00:20:49;98331.22;;;12.50;46.13
64189;BME280;50493;50.970;10.082;2023-03-23T00:23:15;98335.25;;;12.38;50.69
64189;BME280;50493;50.970;10.082;2023-03-23T00:25:45;98329.81;;;12.24;53.44
64189;BME280;50493;50.970;10.082;2023-03-23T00:28:10;98324.00;;;12.55;45.43
64189;BME280;50493;50.970;10.082;2023-03-23T00:30:38;98331.91;;;12.73;44.91
64189;BME280;50493;50.970;10.082;2023-03-23T00:33:04;98324.81;;;12.75;44.19
64189;BME280;50493;50.970;10.082;2023-03-23T00:35:30;98324.13;;;12.71;45.25
64189;BME280;50493;50.970;10.082;2023-03-23T00:37:56;98320.16;;;12.05;49.73
64189;BME280;50493;50.970;10.082;2023-03-23T00:40:21;98323.63;;;12.25;46.60
64189;BME280;50493;50.970;10.082;2023-03-23T00:42:47;98321.97;;;12.03;48.68
64189;BME280;50493;50.970;10.082;2023-03-23T00:45:13;98315.34;;;12.15;46.40
64189;BME280;50493;50.970;10.082;2023-03-23T00:47:40;98320.88;;;12.28;45.17
64189;BME280;50493;50.970;10.082;2023-03-23T00:50:07;98324.19;;;12.31;47.88
64189;BME280;50493;50.970;10.082;2023-03-23T00:52:34;98311.53;;;12.41;52.31
64189;BME280;50493;50.970;10.082;2023-03-23T00:54:59;98308.22;;;12.74;49.41
64189;BME280;50493;50.970;10.082;2023-03-23T00:57:25;98307.56;;;12.13;48.20
64189;BME280;50493;50.970;10.082;2023-03-23T00:59:50;98303.59;;;12.24;45.79
64189;BME280;50493;50.970;10.082;2023-03-23T01:02:16;98308.53;;;12.30;46.77
64189;BME280;50493;50.970;10.082;2023-03-23T01:04:41;98305.84;;;12.12;48.07
64189;BME280;50493;50.970;10.082;2023-03-23T01:07:10;98306.25;;;12.03;49.38
64189;BME280;50493;50.970;10.082;2023-03-23T01:09:39;98298.59;;;11.79;51.57
64189;BME280;50493;50.970;10.082;2023-03-23T01:12:05;98300.53;;;11.74;47.99
64189;BME280;50493;50.970;10.082;2023-03-23T01:14:31;98301.16;;;12.00;48.79
64189;BME280;50493;50.970;10.082;2023-03-23T01:16:56;98293.19;;;11.82;46.20
64189;BME280;50493;50.970;10.082;2023-03-23T01:19:22;98289.03;;;11.78;52.80
64189;BME280;50493;50.970;10.082;2023-03-23T01:21:47;98277.97;;;12.11;48.36
64189;BME280;50493;50.970;10.082;2023-03-23T01:24:12;98274.69;;;12.25;44.99
64189;BME280;50493;50.970;10.082;2023-03-23T01:26:39;98279.66;;;12.12;46.90
64189;BME280;50493;50.970;10.082;2023-03-23T01:29:04;98271.00;;;12.48;44.89
64189;BME280;50493;50.970;10.082;2023-03-23T01:31:30;98281.91;;;12.39;44.97
64189;BME280;50493;50.970;10.082;2023-03-23T01:33:55;98281.84;;;12.41;45.67
64189;BME280;50493;50.970;10.082;2023-03-23T01:36:23;98275.09;;;12.54;44.98
64189;BME280;50493;50.970;10.082;2023-03-23T01:38:50;98261.47;;;12.65;43.87
64189;BME280;50493;50.970;10.082;2023-03-23T01:41:16;98270.78;;;12.72;46.06
64189;BME280;50493;50.970;10.082;2023-03-23T01:44:02;98275.69;;;12.42;44.71
64189;BME280;50493;50.970;10.082;2023-03-23T01:46:30;98269.50;;;12.62;47.17
64189;BME280;50493;50.970;10.082;2023-03-23T01:48:58;98270.81;;;12.71;44.59
64189;BME280;50493;50.970;10.082;2023-03-23T01:51:26;98261.66;;;12.79;45.05
64189;BME280;50493;50.970;10.082;2023-03-23T01:53:55;98266.72;;;12.65;45.65
64189;BME280;50493;50.970;10.082;2023-03-23T01:56:23;98256.06;;;12.68;51.19
64189;BME280;50493;50.970;10.082;2023-03-23T01:58:50;98267.75;;;12.43;45.40
64189;BME280;50493;50.970;10.082;2023-03-23T02:01:17;98267.47;;;12.49;44.47
64189;BME280;50493;50.970;10.082;2023-03-23T02:03:45;98272.00;;;12.27;45.94
64189;BME280;50493;50.970;10.082;2023-03-23T02:06:11;98273.06;;;12.23;46.19
64189;BME280;50493;50.970;10.082;2023-03-23T02:08:38;98268.66;;;12.42;51.14
64189;BME280;50493;50.970;10.082;2023-03-23T02:11:12;98282.06;;;11.98;46.86
64189;BME280;50493;50.970;10.082;2023-03-23T02:13:38;98269.88;;;12.35;45.94
64189;BME280;50493;50.970;10.082;2023-03-23T02:16:07;98268.38;;;12.48;46.43
64189;BME280;50493;50.970;10.082;2023-03-23T02:18:50;98270.78;;;12.90;44.76
64189;BME280;50493;50.970;10.082;2023-03-23T02:21:30;98270.22;;;13.02;44.75
64189;BME280;50493;50.970;10.082;2023-03-23T02:24:15;98271.69;;;12.71;46.85
64189;BME280;50493;50.970;10.082;2023-03-23T02:26:51;98286.13;;;12.80;46.51
64189;BME280;50493;50.970;10.082;2023-03-23T02:29:47;98274.53;;;12.47;46.04
64189;BME280;50493;50.970;10.082;2023-03-23T02:32:25;98278.72;;;12.13;47.58
64189;BME280;50493;50.970;10.082;2023-03-23T02:34:58;98271.75;;;12.33;52.28
64189;BME280;50493;50.970;10.082;2023-03-23T02:37:29;98279.06;;;12.25;47.13
64189;BME280;50493;50.970;10.082;2023-03-23T02:40:02;98276.41;;;12.45;52.79
64189;BME280;50493;50.970;10.082;2023-03-23T02:42:38;98275.09;;;12.54;48.17
64189;BME280;50493;50.970;10.082;2023-03-23T02:45:07;98277.38;;;12.62;50.71
64189;BME280;50493;50.970;10.082;2023-03-23T02:47:35;98271.97;;;12.65;52.58
64189;BME280;50493;50.970;10.082;2023-03-23T02:50:05;98272.19;;;12.60;47.63
64189;BME280;50493;50.970;10.082;2023-03-23T02:52:34;98274.50;;;12.86;47.40
64189;BME280;50493;50.970;10.082;2023-03-23T02:55:02;98277.78;;;12.53;49.02
64189;BME280;50493;50.970;10.082;2023-03-23T02:57:29;98276.56;;;12.60;49.59
64189;BME280;50493;50.970;10.082;2023-03-23T02:59:55;98276.13;;;12.69;49.92
64189;BME280;50493;50.970;10.082;2023-03-23T03:02:22;98283.94;;;13.25;49.15
64189;BME280;50493;50.970;10.082;2023-03-23T03:04:52;98278.13;;;13.00;48.18
64189;BME280;50493;50.970;10.082;2023-03-23T03:07:31;98272.59;;;13.07;49.00
64189;BME280;50493;50.970;10.082;2023-03-23T03:10:02;98276.63;;;12.77;48.71
64189;BME280;50493;50.970;10.082;2023-03-23T03:12:34;98277.28;;;12.82;48.84
64189;BME280;50493;50.970;10.082;2023-03-23T03:15:09;98282.56;;;13.00;48.76
64189;BME280;50493;50.970;10.082;2023-03-23T03:17:39;98293.03;;;13.00;50.67
64189;BME280;50493;50.970;10.082;2023-03-23T03:20:09;98291.78;;;12.90;53.46
64189;BME280;50493;50.970;10.082;2023-03-23T03:22:38;98285.28;;;12.79;50.24
64189;BME280;50493;50.970;10.082;2023-03-23T03:25:08;98284.91;;;12.51;51.87
64189;BME280;50493;50.970;10.082;2023-03-23T03:27:35;98273.56;;;12.31;54.98
64189;BME280;50493;50.970;10.082;2023-03-23T03:30:03;98290.41;;;12.06;54.55
64189;BME280;50493;50.970;10.082;2023-03-23T03:32:36;98279.38;;;12.38;51.84
64189;BME280;50493;50.970;10.082;2023-03-23T03:35:04;98274.13;;;11.99;52.19
64189;BME280;50493;50.970;10.082;2023-03-23T03:37:33;98258.41;;;12.19;52.28
64189;BME280;50493;50.970;10.082;2023-03-23T03:40:04;98264.50;;;12.00;52.21
64189;BME280;50493;50.970;10.082;2023-03-23T03:42:36;98258.84;;;12.09;53.17
64189;BME280;50493;50.970;10.082;2023-03-23T03:45:01;98272.66;;;11.94;53.74
64189;BME280;50493;50.970;10.082;2023-03-23T03:47:26;98264.78;;;12.13;52.91
64189;BME280;50493;50.970;10.082;2023-03-23T03:49:52;98263.50;;;12.41;52.64
64189;BME280;50493;50.970;10.082;2023-03-23T03:52:17;98258.69;;;12.51;51.41
64189;BME280;50493;50.970;10.082;2023-03-23T03:54:42;98259.13;;;12.41;52.10
64189;BME280;50493;50.970;10.082;2023-03-23T03:57:09;98266.72;;;12.65;53.50
64189;BME280;50493;50.970;10.082;2023-03-23T03:59:34;98271.81;;;12.68;52.86
64189;BME280;50493;50.970;10.082;2023-03-23T04:02:00;98268.66;;;12.80;53.55
64189;BME280;50493;50.970;10.082;2023-03-23T04:04:25;98263.47;;;12.60;54.20
64189;BME280;50493;50.970;10.082;2023-03-23T04:06:50;98265.66;;;12.69;55.01
64189;BME280;50493;50.970;10.082;2023-03-23T04:09:16;98272.16;;;12.43;55.54
64189;BME280;50493;50.970;10.082;2023-03-23T04:11:41;98276.09;;;12.52;54.43
64189;BME280;50493;50.970;10.082;2023-03-23T04:14:08;98283.81;;;11.97;54.81
64189;BME280;50493;50.970;10.082;2023-03-23T04:16:33;98280.34;;;11.97;55.18
64189;BME280;50493;50.970;10.082;2023-03-23T04:18:59;98284.00;;;11.74;57.92
64189;BME280;50493;50.970;10.082;2023-03-23T04:21:25;98286.25;;;10.99;62.60
64189;BME280;50493;50.970;10.082;2023-03-23T04:23:53;98288.81;;;10.56;65.07
64189;BME280;50493;50.970;10.082;2023-03-23T04:26:19;98288.75;;;10.58;66.02
64189;BME280;50493;50.970;10.082;2023-03-23T04:28:44;98286.38;;;10.52;64.57
64189;BME280;50493;50.970;10.082;2023-03-23T04:31:11;98296.78;;;10.53;64.74
64189;BME280;50493;50.970;10.082;2023-03-23T04:33:38;98303.06;;;10.47;68.22
64189;BME280;50493;50.970;10.082;2023-03-23T04:36:06;98298.44;;;10.56;68.33
64189;BME280;50493;50.970;10.082;2023-03-23T04:38:32;98304.84;;;10.00;66.92
64189;BME280;50493;50.970;10.082;2023-03-23T04:40:59;98303.06;;;10.00;70.26
64189;BME280;50493;50.970;10.082;2023-03-23T04:43:27;98309.56;;;9.90;68.51
64189;BME280;50493;50.970;10.082;2023-03-23T04:45:54;98312.72;;;10.22;69.73
64189;BME280;50493;50.970;10.082;2023-03-23T04:48:22;98321.78;;;10.37;70.54
64189;BME280;50493;50.970;10.082;2023-03-23T04:50:48;98323.19;;;9.98;68.11
64189;BME280;50493;50.970;10.082;2023-03-23T04:53:16;98321.78;;;10.35;66.01
64189;BME280;50493;50.970;10.082;2023-03-23T04:55:43;98326.75;;;10.67;67.68
64189;BME280;50493;50.970;10.082;2023-03-23T04:58:11;98328.41;;;10.45;66.57
64189;BME280;50493;50.970;10.082;2023-03-23T05:00:39;98335.56;;;10.64;66.76
64189;BME280;50493;50.970;10.082;2023-03-23T05:03:05;98338.41;;;10.58;67.46
64189;BME280;50493;50.970;10.082;2023-03-23T05:05:34;98336.69;;;10.57;65.77
64189;BME280;50493;50.970;10.082;2023-03-23T05:07:59;98340.59;;;10.46;67.47
64189;BME280;50493;50.970;10.082;2023-03-23T05:10:25;98333.97;;;10.60;66.62
64189;BME280;50493;50.970;10.082;2023-03-23T05:12:52;98337.59;;;10.32;67.03
64189;BME280;50493;50.970;10.082;2023-03-23T05:15:18;98339.72;;;10.22;68.88
64189;BME280;50493;50.970;10.082;2023-03-23T05:17:43;98338.50;;;10.07;69.83
64189;BME280;50493;50.970;10.082;2023-03-23T05:20:10;98338.38;;;10.36;69.89
64189;BME280;50493;50.970;10.082;2023-03-23T05:22:38;98338.44;;;10.32;68.43
64189;BME280;50493;50.970;10.082;2023-03-23T05:25:04;98344.75;;;10.27;69.55
64189;BME280;50493;50.970;10.082;2023-03-23T05:27:30;98350.09;;;10.24;69.05
64189;BME280;50493;50.970;10.082;2023-03-23T05:29:56;98341.19;;;10.06;71.31
64189;BME280;50493;50.970;10.082;2023-03-23T05:32:23;98346.34;;;10.07;69.18
64189;BME280;50493;50.970;10.082;2023-03-23T05:34:53;98341.09;;;9.58;73.08
64189;BME280;50493;50.970;10.082;2023-03-23T05:37:20;98346.72;;;9.71;72.61
64189;BME280;50493;50.970;10.082;2023-03-23T05:39:46;98332.56;;;9.78;74.42
64189;BME280;50493;50.970;10.082;2023-03-23T05:42:12;98342.16;;;9.78;73.28
64189;BME280;50493;50.970;10.082;2023-03-23T05:44:37;98335.56;;;10.17;70.96
64189;BME280;50493;50.970;10.082;2023-03-23T05:47:03;98337.94;;;10.23;73.41
64189;BME280;50493;50.970;10.082;2023-03-23T05:49:28;98335.22;;;10.50;71.52
64189;BME280;50493;50.970;10.082;2023-03-23T05:51:54;98337.16;;;10.68;72.30
64189;BME280;50493;50.970;10.082;2023-03-23T05:54:19;98333.16;;;10.81;71.81
64189;BME280;50493;50.970;10.082;2023-03-23T05:56:46;98323.03;;;10.72;70.81
64189;BME280;50493;50.970;10.082;2023-03-23T05:59:11;98329.25;;;10.70;69.85
64189;BME280;50493;50.970;10.082;2023-03-23T06:01:37;98330.63;;;10.78;71.51
64189;BME280;50493;50.970;10.082;2023-03-23T06:04:03;98342.25;;;10.71;68.84
64189;BME280;50493;50.970;10.082;2023-03-23T06:06:29;98344.38;;;10.84;70.34
64189;BME280;50493;50.970;10.082;2023-03-23T06:08:55;98334.41;;;11.15;69.52
64189;BME280;50493;50.970;10.082;2023-03-23T06:11:22;98344.19;;;11.10;70.04
64189;BME280;50493;50.970;10.082;2023-03-23T06:13:49;98345.09;;;11.09;71.14
64189;BME280;50493;50.970;10.082;2023-03-23T06:16:15;98334.69;;;11.08;70.90
64189;BME280;50493;50.970;10.082;2023-03-23T06:18:40;98334.28;;;10.96;72.07
64189;BME280;50493;50.970;10.082;2023-03-23T06:21:08;98348.50;;;10.89;70.13
64189;BME280;50493;50.970;10.082;2023-03-23T06:23:33;98344.16;;;10.90;71.58
64189;BME280;50493;50.970;10.082;2023-03-23T06:26:00;98349.13;;;10.96;70.39
64189;BME280;50493;50.970;10.082;2023-03-23T06:28:26;98347.00;;;10.84;70.55
64189;BME280;50493;50.970;10.082;2023-03-23T06:30:53;98346.69;;;10.91;70.98
64189;BME280;50493;50.970;10.082;2023-03-23T06:33:19;98340.66;;;11.11;71.54
64189;BME280;50493;50.970;10.082;2023-03-23T06:35:44;98335.97;;;11.20;69.69
64189;BME280;50493;50.970;10.082;2023-03-23T06:38:10;98345.97;;;10.88;69.96
64189;BME280;50493;50.970;10.082;2023-03-23T06:40:36;98351.78;;;10.72;69.72
64189;BME280;50493;50.970;10.082;2023-03-23T06:43:01;98346.91;;;10.85;71.88
64189;BME280;50493;50.970;10.082;2023-03-23T06:45:28;98344.25;;;10.87;70.61
64189;BME280;50493;50.970;10.082;2023-03-23T06:47:55;98347.66;;;10.89;70.97
64189;BME280;50493;50.970;10.082;2023-03-23T06:50:21;98352.63;;;10.95;70.55
64189;BME280;50493;50.970;10.082;2023-03-23T06:52:47;98355.56;;;11.09;71.31
64189;BME280;50493;50.970;10.082;2023-03-23T06:55:13;98341.56;;;11.10;69.98
64189;BME280;50493;50.970;10.082;2023-03-23T06:57:38;98331.84;;;11.14;71.46
64189;BME280;50493;50.970;10.082;2023-03-23T07:00:05;98328.91;;;11.22;71.25
64189;BME280;50493;50.970;10.082;2023-03-23T07:02:35;98316.47;;;11.27;71.13
64189;BME280;50493;50.970;10.082;2023-03-23T07:05:02;98316.84;;;10.97;67.24
64189;BME280;50493;50.970;10.082;2023-03-23T07:07:29;98313.00;;;10.84;66.53
64189;BME280;50493;50.970;10.082;2023-03-23T07:09:54;98313.72;;;10.65;68.62
64189;BME280;50493;50.970;10.082;2023-03-23T07:12:20;98308.50;;;10.65;69.82
64189;BME280;50493;50.970;10.082;2023-03-23T07:14:46;98312.13;;;10.61;69.21
64189;BME280;50493;50.970;10.082;2023-03-23T07:17:11;98329.72;;;10.57;71.38
64189;BME280;50493;50.970;10.082;2023-03-23T07:19:36;98339.00;;;10.42;72.02
64189;BME280;50493;50.970;10.082;2023-03-23T07:22:06;98339.00;;;10.42;70.29
64189;BME280;50493;50.970;10.082;2023-03-23T07:24:31;98329.47;;;11.08;67.41
64189;BME280;50493;50.970;10.082;2023-03-23T07:26:57;98333.63;;;11.34;68.88
64189;BME280;50493;50.970;10.082;2023-03-23T07:29:22;98339.97;;;11.49;67.69
64189;BME280;50493;50.970;10.082;2023-03-23T07:31:48;98336.47;;;11.07;67.97
64189;BME280;50493;50.970;10.082;2023-03-23T07:34:13;98336.19;;;11.36;66.84
64189;BME280;50493;50.970;10.082;2023-03-23T07:36:38;98332.09;;;11.51;65.51
64189;BME280;50493;50.970;10.082;2023-03-23T07:39:05;98329.53;;;11.90;64.12
64189;BME280;50493;50.970;10.082;2023-03-23T07:41:31;98333.81;;;12.12;59.83
64189;BME280;50493;50.970;10.082;2023-03-23T07:43:56;98331.06;;;12.34;63.11
64189;BME280;50493;50.970;10.082;2023-03-23T07:46:21;98313.94;;;12.27;63.29
64189;BME280;50493;50.970;10.082;2023-03-23T07:48:47;98303.03;;;12.17;62.41
64189;BME280;50493;50.970;10.082;2023-03-23T07:51:13;98303.53;;;12.06;63.74
64189;BME280;50493;50.970;10.082;2023-03-23T07:53:38;98308.63;;;12.28;62.34
64189;BME280;50493;50.970;10.082;2023-03-23T07:56:06;98313.91;;;12.08;62.99
64189;BME280;50493;50.970;10.082;2023-03-23T07:58:32;98329.19;;;11.98;62.92
64189;BME280;50493;50.970;10.082;2023-03-23T08:00:57;98346.97;;;11.48;64.79
64189;BME280;50493;50.970;10.082;2023-03-23T08:03:23;98356.63;;;11.48;63.78
64189;BME280;50493;50.970;10.082;2023-03-23T08:05:48;98347.25;;;11.42;63.04
64189;BME280;50493;50.970;10.082;2023-03-23T08:08:13;98344.22;;;11.31;65.16
64189;BME280;50493;50.970;10.082;2023-03-23T08:10:39;98346.66;;;11.13;64.29
64189;BME280;50493;50.970;10.082;2023-03-23T09:27:04;98396.72;;;9.32;76.08
64189;BME280;50493;50.970;10.082;2023-03-23T09:29:30;98394.00;;;10.38;71.50
64189;BME280;50493;50.970;10.082;2023-03-23T09:35:16;98399.66;;;11.19;68.42
64189;BME280;50493;50.970;10.082;2023-03-23T09:37:42;98407.50;;;11.63;66.05
64189;BME280;50493;50.970;10.082;2023-03-23T09:40:11;98406.91;;;11.97;63.89
64189;BME280;50493;50.970;10.082;2023-03-23T09:42:50;98399.34;;;12.31;60.96
64189;BME280;50493;50.970;10.082;2023-03-23T09:57:40;98407.59;;;10.71;69.61
64189;BME280;50493;50.970;10.082;2023-03-23T10:00:12;98409.66;;;11.52;64.51
64189;BME280;50493;50.970;10.082;2023-03-23T10:02:43;98401.34;;;11.85;62.87
64189;BME280;50493;50.970;10.082;2023-03-23T10:05:25;98393.72;;;12.59;61.47
64189;BME280;50493;50.970;10.082;2023-03-23T10:07:53;98388.75;;;13.10;59.94
64189;BME280;50493;50.970;10.082;2023-03-23T10:10:19;98390.66;;;13.07;60.14
64189;BME280;50493;50.970;10.082;2023-03-23T10:12:52;98398.53;;;13.07;57.91
64189;BME280;50493;50.970;10.082;2023-03-23T10:15:21;98400.91;;;13.11;58.42
64189;BME280;50493;50.970;10.082;2023-03-23T10:17:52;98397.81;;;13.40;56.49
64189;BME280;50493;50.970;10.082;2023-03-23T10:20:30;98388.09;;;13.42;57.05
64189;BME280;50493;50.970;10.082;2023-03-23T10:23:02;98396.84;;;13.77;56.66
64189;BME280;50493;50.970;10.082;2023-03-23T10:25:34;98404.06;;;13.55;56.63
64189;BME280;50493;50.970;10.082;2023-03-23T10:28:05;98407.59;;;13.73;55.40
64189;BME280;50493;50.970;10.082;2023-03-23T10:30:35;98406.78;;;13.53;56.36
64189;BME280;50493;50.970;10.082;2023-03-23T10:33:04;98399.75;;;13.36;57.43
64189;BME280;50493;50.970;10.082;2023-03-23T10:35:35;98418.84;;;13.75;57.36
64189;BME280;50493;50.970;10.082;2023-03-23T10:38:04;98405.03;;;13.71;55.30
64189;BME280;50493;50.970;10.082;2023-03-23T10:40:31;98408.25;;;13.76;55.40
64189;BME280;50493;50.970;10.082;2023-03-23T10:43:00;98421.53;;;13.56;56.32
64189;BME280;50493;50.970;10.082;2023-03-23T10:45:29;98414.09;;;13.29;57.67
64189;BME280;50493;50.970;10.082;2023-03-23T10:48:08;98410.28;;;13.71;56.69
64189;BME280;50493;50.970;10.082;2023-03-23T10:50:36;98414.19;;;13.45;57.21
64189;BME280;50493;50.970;10.082;2023-03-23T10:53:10;98411.66;;;13.43;55.87
64189;BME280;50493;50.970;10.082;2023-03-23T10:55:39;98406.72;;;13.72;56.20
64189;BME280;50493;50.970;10.082;2023-03-23T10:58:06;98402.84;;;13.44;57.36
64189;BME280;50493;50.970;10.082;2023-03-23T11:00:40;98403.06;;;13.57;55.88
64189;BME280;50493;50.970;10.082;2023-03-23T11:03:22;98407.19;;;13.98;56.30
64189;BME280;50493;50.970;10.082;2023-03-23T11:05:50;98410.00;;;13.95;54.04
64189;BME280;50493;50.970;10.082;2023-03-23T11:08:20;98410.28;;;13.71;55.43
64189;BME280;50493;50.970;10.082;2023-03-23T11:10:49;98414.59;;;13.55;55.56
64189;BME280;50493;50.970;10.082;2023-03-23T11:13:17;98413.34;;;13.44;56.71
64189;BME280;50493;50.970;10.082;2023-03-23T11:15:45;98423.78;;;13.09;57.53
64189;BME280;50493;50.970;10.082;2023-03-23T11:18:18;98417.50;;;13.31;59.38
64189;BME280;50493;50.970;10.082;2023-03-23T11:20:48;98422.56;;;13.71;57.46
64189;BME280;50493;50.970;10.082;2023-03-23T11:23:19;98422.63;;;13.69;57.52
64189;BME280;50493;50.970;10.082;2023-03-23T11:25:58;98408.75;;;14.02;56.39
64189;BME280;50493;50.970;10.082;2023-03-23T11:28:28;98409.66;;;13.83;56.07
64189;BME280;50493;50.970;10.082;2023-03-23T11:30:57;98402.53;;;13.86;57.35
64189;BME280;50493;50.970;10.082;2023-03-23T11:33:23;98406.06;;;14.04;53.05
64189;BME280;50493;50.970;10.082;2023-03-23T11:35:52;98414.16;;;13.99;53.97
64189;BME280;50493;50.970;10.082;2023-03-23T11:38:20;98408.16;;;13.97;56.88
64189;BME280;50493;50.970;10.082;2023-03-23T11:40:48;98416.03;;;13.97;54.74
64189;BME280;50493;50.970;10.082;2023-03-23T11:43:18;98406.00;;;14.55;53.59
64189;BME280;50493;50.970;10.082;2023-03-23T11:45:47;98406.78;;;14.57;55.78
64189;BME280;50493;50.970;10.082;2023-03-23T11:48:22;98420.13;;;14.85;54.58
64189;BME280;50493;50.970;10.082;2023-03-23T11:50:54;98405.22;;;15.18;51.08
64189;BME280;50493;50.970;10.082;2023-03-23T11:53:31;98402.16;;;14.94;54.34
64189;BME280;50493;50.970;10.082;2023-03-23T11:56:06;98405.25;;;15.48;51.64
64189;BME280;50493;50.970;10.082;2023-03-23T11:58:33;98403.50;;;15.33;49.01
64189;BME280;50493;50.970;10.082;2023-03-23T12:01:05;98411.88;;;15.56;53.13
64189;BME280;50493;50.970;10.082;2023-03-23T12:03:58;98409.13;;;14.95;52.59
64189;BME280;50493;50.970;10.082;2023-03-23T12:06:34;98403.00;;;14.78;56.06
64189;BME280;50493;50.970;10.082;2023-03-23T12:09:10;98416.75;;;14.99;51.12
64189;BME280;50493;50.970;10.082;2023-03-23T12:11:49;98414.00;;;14.69;53.18
64189;BME280;50493;50.970;10.082;2023-03-23T12:14:21;98411.34;;;14.20;54.20
64189;BME280;50493;50.970;10.082;2023-03-23T12:16:59;98425.44;;;13.83;57.60
64189;BME280;50493;50.970;10.082;2023-03-23T12:19:35;98418.00;;;14.27;55.00
64189;BME280;50493;50.970;10.082;2023-03-23T12:22:09;98426.53;;;14.14;58.80
64189;BME280;50493;50.970;10.082;2023-03-23T12:24:50;98422.34;;;14.10;54.45
64189;BME280;50493;50.970;10.082;2023-03-23T12:27:24;98423.25;;;13.74;56.60
64189;BME280;50493;50.970;10.082;2023-03-23T12:30:00;98418.31;;;13.68;56.52
64189;BME280;50493;50.970;10.082;2023-03-23T12:32:42;98424.00;;;13.41;58.44
64189;BME280;50493;50.970;10.082;2023-03-23T12:35:32;98416.09;;;13.24;64.61
64189;BME280;50493;50.970;10.082;2023-03-23T12:38:24;98416.66;;;12.73;58.37
64189;BME280;50493;50.970;10.082;2023-03-23T12:41:01;98428.88;;;12.93;58.32
64189;BME280;50493;50.970;10.082;2023-03-23T12:43:36;98421.97;;;12.53;58.53
64189;BME280;50493;50.970;10.082;2023-03-23T12:46:39;98412.28;;;12.74;62.79
64189;BME280;50493;50.970;10.082;2023-03-23T12:49:13;98405.44;;;13.27;59.12
64189;BME280;50493;50.970;10.082;2023-03-23T12:51:45;98400.75;;;13.33;60.90
64189;BME280;50493;50.970;10.082;2023-03-23T12:54:19;98411.78;;;13.23;57.81
64189;BME280;50493;50.970;10.082;2023-03-23T12:56:52;98405.41;;;12.71;63.16
64189;BME280;50493;50.970;10.082;2023-03-23T12:59:23;98400.09;;;12.54;62.62
64189;BME280;50493;50.970;10.082;2023-03-23T13:01:54;98409.13;;;12.46;64.55
64189;BME280;50493;50.970;10.082;2023-03-23T13:04:25;98411.44;;;11.94;67.30
64189;BME280;50493;50.970;10.082;2023-03-23T13:06:53;98404.03;;;12.43;69.32
64189;BME280;50493;50.970;10.082;2023-03-23T13:09:22;98410.75;;;12.49;68.24
64189;BME280;50493;50.970;10.082;2023-03-23T13:11:50;98418.75;;;12.27;67.38
64189;BME280;50493;50.970;10.082;2023-03-23T13:14:24;98411.44;;;11.94;66.08
64189;BME280;50493;50.970;10.082;2023-03-23T13:16:58;98410.56;;;11.93;68.08
64189;BME280;50493;50.970;10.082;2023-03-23T13:19:31;98407.34;;;12.28;65.58
64189;BME280;50493;50.970;10.082;2023-03-23T13:22:03;98412.78;;;12.23;69.14
64189;BME280;50493;50.970;10.082;2023-03-23T13:24:31;98399.00;;;12.39;68.21
64189;BME280;50493;50.970;10.082;2023-03-23T13:26:59;98404.97;;;12.22;68.03
64189;BME280;50493;50.970;10.082;2023-03-23T13:29:26;98412.69;;;12.45;62.84
64189;BME280;50493;50.970;10.082;2023-03-23T13:32:04;98413.25;;;12.33;64.32
64189;BME280;50493;50.970;10.082;2023-03-23T13:34:31;98412.41;;;12.71;64.86
64189;BME280;50493;50.970;10.082;2023-03-23T13:37:00;98410.25;;;12.41;62.47
64189;BME280;50493;50.970;10.082;2023-03-23T13:39:30;98409.00;;;12.49;60.84
64189;BME280;50493;50.970;10.082;2023-03-23T13:42:03;98392.13;;;12.36;59.97
64189;BME280;50493;50.970;10.082;2023-03-23T13:44:41;98386.75;;;12.58;59.95
64189;BME280;50493;50.970;10.082;2023-03-23T13:47:20;98390.56;;;12.32;63.55
64189;BME280;50493;50.970;10.082;2023-03-23T13:49:50;98396.38;;;13.15;60.63
64189;BME280;50493;50.970;10.082;2023-03-23T13:52:22;98388.16;;;13.23;59.09
64189;BME280;50493;50.970;10.082;2023-03-23T13:54:49;98386.94;;;13.47;58.22
64189;BME280;50493;50.970;10.082;2023-03-23T13:57:33;98375.84;;;13.95;58.14
64189;BME280;50493;50.970;10.082;2023-03-23T14:00:12;98369.03;;;14.58;54.47
64189;BME280;50493;50.970;10.082;2023-03-23T14:02:39;98358.09;;;14.81;53.59
64189;BME280;50493;50.970;10.082;2023-03-23T14:05:30;98365.66;;;14.72;53.08
64189;BME280;50493;50.970;10.082;2023-03-23T14:07:59;98364.81;;;14.22;53.31
64189;BME280;50493;50.970;10.082;2023-03-23T14:10:32;98361.97;;;14.42;53.02
64189;BME280;50493;50.970;10.082;2023-03-23T14:13:00;98351.38;;;14.60;52.26
64189;BME280;50493;50.970;10.082;2023-03-23T14:15:28;98351.00;;;14.34;53.92
64189;BME280;50493;50.970;10.082;2023-03-23T14:17:54;98355.84;;;14.26;52.75
64189;BME280;50493;50.970;10.082;2023-03-23T14:20:24;98357.81;;;14.38;52.97
64189;BME280;50493;50.970;10.082;2023-03-23T14:22:53;98363.31;;;14.00;54.32
64189;BME280;50493;50.970;10.082;2023-03-23T14:25:21;98369.94;;;14.07;54.64
64189;BME280;50493;50.970;10.082;2023-03-23T14:27:46;98358.91;;;14.34;52.95
64189;BME280;50493;50.970;10.082;2023-03-23T14:30:14;98371.38;;;14.46;53.18